createdAt,value
2018-12-03T00:01:15.775Z,97.30
2018-12-03T00:04:19.746Z,97.20
2018-12-03T00:07:30.752Z,97.30
2018-12-03T00:10:29.652Z,97.10
2018-12-03T00:13:28.746Z,97.10
2018-12-03T00:16:27.916Z,97.00
2018-12-03T00:19:25.904Z,96.90
2018-12-03T00:22:24.056Z,96.50
2018-12-03T00:25:23.433Z,96.60
2018-12-03T00:28:21.609Z,96.50
2018-12-03T00:31:21.982Z,96.50
2018-12-03T00:34:21.932Z,96.50
2018-12-03T00:37:20.290Z,96.30
2018-12-03T00:40:20.380Z,96.40
2018-12-03T00:43:19.261Z,96.30
2018-12-03T00:46:17.623Z,96.30
2018-12-03T00:49:15.765Z,96.40
2018-12-03T00:52:13.764Z,96.00
2018-12-03T00:55:11.629Z,95.90
2018-12-03T00:58:09.786Z,95.80
2018-12-03T01:01:08.018Z,95.60
2018-12-03T01:04:05.844Z,95.60
2018-12-03T01:07:03.894Z,95.50
2018-12-03T01:10:01.636Z,95.30
2018-12-03T01:13:00.205Z,95.30
2018-12-03T01:15:58.433Z,95.20
2018-12-03T01:18:56.453Z,95.10
2018-12-03T01:21:54.662Z,95.00
2018-12-03T01:24:53.955Z,95.00
2018-12-03T01:27:51.926Z,95.10
2018-12-03T01:30:49.894Z,95.10
2018-12-03T01:33:48.037Z,95.20
2018-12-03T01:36:46.337Z,95.50
2018-12-03T01:39:44.475Z,95.60
2018-12-03T01:42:42.644Z,95.90
2018-12-03T01:45:41.440Z,96.10
2018-12-03T01:48:39.561Z,96.50
2018-12-03T01:51:38.425Z,96.70
2018-12-03T01:54:36.305Z,97.10
2018-12-03T01:57:34.471Z,97.10
2018-12-03T02:00:48.035Z,97.20
2018-12-03T02:03:46.145Z,97.50
2018-12-03T02:06:44.625Z,97.60
2018-12-03T02:09:42.721Z,98.10
2018-12-03T02:12:40.881Z,98.00
2018-12-03T02:15:39.317Z,98.20
2018-12-03T02:18:39.314Z,98.40
2018-12-03T02:21:37.458Z,98.50
2018-12-03T02:24:35.660Z,98.70
2018-12-03T02:27:34.085Z,98.30
2018-12-03T02:30:35.336Z,98.70
2018-12-03T02:33:33.611Z,98.70
2018-12-03T02:36:32.610Z,98.50
2018-12-03T02:39:31.658Z,98.50
2018-12-03T02:42:29.731Z,98.50
2018-12-03T02:45:30.708Z,98.70
2018-12-03T02:48:28.822Z,98.50
2018-12-03T02:51:27.599Z,98.60
2018-12-03T02:54:25.837Z,98.60
2018-12-03T02:57:23.901Z,98.60
2018-12-03T03:00:25.972Z,98.60
2018-12-03T03:03:25.061Z,98.40
2018-12-03T03:06:23.424Z,98.50
2018-12-03T03:09:22.486Z,98.40
2018-12-03T03:12:20.670Z,98.40
2018-12-03T03:15:20.039Z,98.40
2018-12-03T03:18:18.231Z,98.40
2018-12-03T03:21:16.463Z,98.30
2018-12-03T03:24:14.753Z,98.30
2018-12-03T03:27:12.896Z,98.30
2018-12-03T03:30:11.097Z,98.20
2018-12-03T03:33:09.346Z,98.10
2018-12-03T03:36:07.399Z,98.40
2018-12-03T03:39:05.566Z,98.40
2018-12-03T03:42:03.734Z,98.20
2018-12-03T03:45:01.646Z,98.10
2018-12-03T03:47:59.440Z,98.00
2018-12-03T03:50:58.521Z,97.90
2018-12-03T03:53:56.653Z,97.80
2018-12-03T03:56:54.644Z,97.70
2018-12-03T03:59:52.807Z,97.50
2018-12-03T04:02:52.008Z,97.50
2018-12-03T04:05:49.238Z,97.40
2018-12-03T04:08:48.325Z,97.30
2018-12-03T04:11:46.590Z,97.20
2018-12-03T04:14:44.815Z,97.10
2018-12-03T04:17:42.891Z,97.00
2018-12-03T04:20:41.882Z,97.00
2018-12-03T04:23:40.044Z,97.00
2018-12-03T04:26:38.061Z,97.20
2018-12-03T04:29:36.268Z,97.00
2018-12-03T04:32:34.337Z,96.60
2018-12-03T04:35:33.518Z,96.60
2018-12-03T04:38:31.786Z,96.40
2018-12-03T04:41:30.978Z,96.40
2018-12-03T04:44:29.241Z,96.30
2018-12-03T04:47:27.301Z,96.30
2018-12-03T04:50:32.514Z,96.30
2018-12-03T04:53:30.623Z,96.30
2018-12-03T04:56:28.651Z,96.30
2018-12-03T04:59:26.799Z,96.30
2018-12-03T05:02:25.056Z,96.40
2018-12-03T05:05:23.981Z,96.40
2018-12-03T05:08:21.934Z,96.40
2018-12-03T05:11:21.177Z,96.40
2018-12-03T05:14:19.140Z,96.40
2018-12-03T05:17:17.205Z,96.40
2018-12-03T05:20:15.196Z,96.40
2018-12-03T05:23:13.439Z,96.00
2018-12-03T05:26:11.435Z,96.10
2018-12-03T05:29:09.655Z,96.10
2018-12-03T05:32:07.681Z,96.00
2018-12-03T05:35:05.812Z,95.90
2018-12-03T05:38:03.933Z,95.70
2018-12-03T05:41:02.290Z,95.70
2018-12-03T05:44:00.512Z,95.90
2018-12-03T05:46:58.611Z,95.60
2018-12-03T05:49:56.907Z,95.60
2018-12-03T05:52:55.137Z,95.50
2018-12-03T05:55:53.267Z,95.40
2018-12-03T05:58:51.514Z,95.30
2018-12-03T06:01:50.576Z,95.60
2018-12-03T06:04:48.526Z,95.30
2018-12-03T06:07:46.779Z,95.30
2018-12-03T06:10:44.949Z,95.30
2018-12-03T06:13:43.329Z,95.60
2018-12-03T06:16:41.465Z,95.50
2018-12-03T06:19:39.658Z,95.50
2018-12-03T06:22:37.604Z,95.90
2018-12-03T06:25:39.044Z,96.00
2018-12-03T06:28:37.071Z,96.20
2018-12-03T06:31:35.253Z,96.20
2018-12-03T06:34:33.569Z,96.30
2018-12-03T06:37:31.686Z,96.30
2018-12-03T06:40:35.797Z,96.30
2018-12-03T06:43:34.872Z,96.40
2018-12-03T06:46:32.920Z,96.40
2018-12-03T06:49:31.340Z,96.40
2018-12-03T06:52:29.588Z,96.40
2018-12-03T06:55:28.636Z,96.30
2018-12-03T06:58:26.602Z,96.20
2018-12-03T07:01:24.955Z,95.90
2018-12-03T07:04:22.947Z,96.10
2018-12-03T07:07:20.890Z,96.00
2018-12-03T07:10:19.806Z,95.90
2018-12-03T07:13:20.668Z,95.90
2018-12-03T07:16:19.860Z,95.80
2018-12-03T07:19:17.721Z,95.70
2018-12-03T07:22:15.828Z,95.60
2018-12-03T07:25:14.984Z,95.50
2018-12-03T07:28:13.050Z,95.40
2018-12-03T07:31:11.427Z,95.30
2018-12-03T07:34:09.570Z,95.20
2018-12-03T07:37:07.558Z,95.10
2018-12-03T07:40:05.647Z,95.00
2018-12-03T07:43:04.681Z,95.00
2018-12-03T07:46:02.745Z,94.90
2018-12-03T07:49:01.108Z,94.80
2018-12-03T07:51:59.271Z,94.70
2018-12-03T07:54:57.405Z,94.60
2018-12-03T07:57:57.158Z,94.50
2018-12-03T08:01:03.784Z,94.20
2018-12-03T08:04:01.998Z,94.10
2018-12-03T08:07:00.116Z,94.00
2018-12-03T08:09:58.064Z,93.80
2018-12-03T08:12:57.155Z,93.70
2018-12-03T08:15:56.393Z,93.60
2018-12-03T08:18:54.745Z,93.50
2018-12-03T08:21:52.578Z,93.50
2018-12-03T08:24:50.998Z,93.50
2018-12-03T08:27:49.181Z,93.50
2018-12-03T08:30:47.405Z,93.30
2018-12-03T08:33:46.627Z,93.50
2018-12-03T08:36:45.613Z,93.40
2018-12-03T08:39:43.593Z,93.60
2018-12-03T08:42:42.510Z,93.80
2018-12-03T08:45:40.837Z,94.10
2018-12-03T08:48:39.921Z,94.20
2018-12-03T08:51:38.083Z,94.30
2018-12-03T08:54:36.654Z,94.30
2018-12-03T08:57:34.808Z,94.10
2018-12-03T09:00:39.923Z,94.00
2018-12-03T09:03:40.971Z,93.80
2018-12-03T09:06:38.928Z,93.70
2018-12-03T09:09:38.320Z,93.40
2018-12-03T09:12:36.374Z,93.30
2018-12-03T09:15:34.592Z,93.10
2018-12-03T09:18:37.672Z,93.00
2018-12-03T09:21:37.814Z,92.90
2018-12-03T09:24:35.882Z,92.60
2018-12-03T09:27:34.742Z,92.80
2018-12-03T09:30:33.236Z,92.20
2018-12-03T09:33:31.216Z,92.10
2018-12-03T09:36:31.296Z,92.00
2018-12-03T09:39:34.590Z,91.50
2018-12-03T09:42:32.934Z,91.50
2018-12-03T09:45:35.194Z,91.20
2018-12-03T09:48:33.248Z,91.30
2018-12-03T09:51:31.518Z,91.20
2018-12-03T09:54:31.504Z,90.70
2018-12-03T09:57:29.683Z,90.70
2018-12-03T10:00:30.613Z,90.50
2018-12-03T10:03:37.865Z,90.50
2018-12-03T10:06:39.067Z,90.40
2018-12-03T10:09:37.282Z,90.20
2018-12-03T10:12:35.554Z,90.00
2018-12-03T10:15:36.675Z,90.00
2018-12-03T10:18:34.640Z,90.00
2018-12-03T10:21:32.689Z,89.90
2018-12-03T10:24:33.889Z,89.80
2018-12-03T10:27:34.333Z,89.80
2018-12-03T10:30:35.372Z,90.00
2018-12-03T10:33:39.061Z,89.90
2018-12-03T10:36:37.395Z,90.00
2018-12-03T10:39:36.334Z,89.60
2018-12-03T10:42:35.893Z,89.50
2018-12-03T10:45:39.075Z,89.20
2018-12-03T10:48:37.220Z,89.20
2018-12-03T10:51:42.460Z,89.20
2018-12-03T10:54:41.753Z,88.90
2018-12-03T10:57:40.638Z,88.90
2018-12-03T11:00:46.971Z,88.10
2018-12-03T11:03:51.495Z,88.10
2018-12-03T11:06:49.345Z,87.90
2018-12-03T11:09:50.261Z,87.90
2018-12-03T11:12:48.333Z,88.10
2018-12-03T11:15:46.557Z,88.00
2018-12-03T11:18:45.659Z,87.80
2018-12-03T11:21:43.413Z,87.60
2018-12-03T11:24:41.479Z,86.80
2018-12-03T11:27:40.645Z,87.10
2018-12-03T11:30:38.830Z,87.10
2018-12-03T11:33:38.177Z,86.90
2018-12-03T11:36:38.129Z,87.00
2018-12-03T11:39:47.223Z,86.90
2018-12-03T11:42:48.203Z,87.00
2018-12-03T11:45:46.287Z,86.90
2018-12-03T11:48:44.588Z,87.20
2018-12-03T11:51:42.673Z,87.30
2018-12-03T11:54:40.721Z,87.80
2018-12-03T11:57:38.995Z,87.70
2018-12-03T12:00:36.959Z,88.60
2018-12-03T12:03:35.048Z,90.10
2018-12-03T12:06:34.870Z,90.60
2018-12-03T12:09:34.222Z,91.00
2018-12-03T12:12:32.239Z,91.50
2018-12-03T12:15:33.414Z,91.80
2018-12-03T12:18:31.316Z,92.20
2018-12-03T12:21:29.104Z,91.80
2018-12-03T12:24:27.057Z,91.80
2018-12-03T12:27:25.832Z,91.80
2018-12-03T12:30:25.817Z,91.60
2018-12-03T12:33:23.824Z,91.50
2018-12-03T12:36:23.018Z,91.50
2018-12-03T12:39:23.190Z,91.40
2018-12-03T12:42:23.233Z,91.30
2018-12-03T12:45:25.411Z,91.20
2018-12-03T12:48:24.027Z,91.10
2018-12-03T12:51:22.631Z,91.00
2018-12-03T12:54:23.387Z,91.00
2018-12-03T12:57:22.691Z,90.90
2018-12-03T13:00:23.737Z,90.80
2018-12-03T13:03:21.588Z,90.60
2018-12-03T13:06:19.828Z,90.70
2018-12-03T13:09:18.256Z,90.30
2018-12-03T13:12:16.710Z,90.20
2018-12-03T13:15:14.845Z,90.10
2018-12-03T13:18:12.919Z,90.00
2018-12-03T13:21:11.044Z,89.80
2018-12-03T13:24:10.029Z,89.80
2018-12-03T13:27:07.963Z,90.20
2018-12-03T13:30:07.830Z,90.80
2018-12-03T13:33:05.945Z,92.00
2018-12-03T13:36:04.824Z,92.80
2018-12-03T13:39:03.932Z,93.40
2018-12-03T13:42:03.055Z,93.60
2018-12-03T13:45:02.010Z,94.00
2018-12-03T13:48:01.035Z,94.00
2018-12-03T13:50:59.017Z,94.00
2018-12-03T13:53:57.093Z,93.90
2018-12-03T13:56:55.474Z,93.90
2018-12-03T13:59:53.800Z,94.70
2018-12-03T14:02:52.721Z,94.40
2018-12-03T14:05:53.955Z,94.40
2018-12-03T14:09:43.823Z,94.60
2018-12-03T14:13:04.268Z,94.60
2018-12-03T14:16:31.473Z,94.70
2018-12-03T14:19:35.445Z,94.50
2018-12-03T14:22:38.663Z,94.30
2018-12-03T14:25:36.827Z,94.30
2018-12-03T14:28:34.985Z,94.40
2018-12-03T14:31:33.242Z,94.10
2018-12-03T14:34:40.395Z,93.80
2018-12-03T14:37:38.370Z,93.60
2018-12-03T14:40:36.333Z,93.40
2018-12-03T14:43:34.618Z,93.20
2018-12-03T14:47:24.960Z,93.10
2018-12-03T14:50:23.800Z,93.30
2018-12-03T14:53:21.486Z,94.20
2018-12-03T14:56:19.219Z,94.50
2018-12-03T14:59:17.186Z,95.50
2018-12-03T15:02:15.043Z,95.60
2018-12-03T15:05:13.810Z,96.20
2018-12-03T15:08:12.675Z,96.50
2018-12-03T15:11:10.635Z,96.70
2018-12-03T15:14:09.646Z,97.30
2018-12-03T15:17:07.505Z,97.50
2018-12-03T15:20:05.431Z,97.70
2018-12-03T15:23:03.084Z,97.60
2018-12-03T15:26:01.133Z,97.60
2018-12-03T15:28:59.028Z,98.10
2018-12-03T15:31:56.989Z,97.90
2018-12-03T15:34:55.000Z,98.20
2018-12-03T15:37:53.778Z,98.30
2018-12-03T15:40:52.672Z,98.60
2018-12-03T15:43:50.762Z,98.60
2018-12-03T15:46:48.703Z,98.60
2018-12-03T15:49:46.459Z,98.80
2018-12-03T15:52:45.147Z,98.80
2018-12-03T15:55:42.810Z,98.80
2018-12-03T15:58:40.661Z,99.10
2018-12-03T16:01:38.391Z,99.20
2018-12-03T16:04:37.175Z,99.50
2018-12-03T16:07:34.963Z,99.40
2018-12-03T16:10:32.782Z,99.60
2018-12-03T16:13:31.662Z,99.40
2018-12-03T16:16:30.558Z,99.40
2018-12-03T16:19:28.423Z,99.60
2018-12-03T16:22:27.377Z,99.40
2018-12-03T16:25:25.167Z,99.50
2018-12-03T16:28:23.182Z,99.20
2018-12-03T16:31:21.881Z,99.40
2018-12-03T16:34:19.839Z,99.20
2018-12-03T16:37:17.594Z,99.10
2018-12-03T16:40:15.636Z,99.20
2018-12-03T16:43:14.429Z,99.00
2018-12-03T16:46:12.469Z,99.00
2018-12-03T16:49:11.365Z,99.00
2018-12-03T16:52:09.420Z,98.80
2018-12-03T16:55:07.440Z,98.50
2018-12-03T16:58:06.053Z,98.80
2018-12-03T17:01:04.021Z,98.40
2018-12-03T17:04:02.613Z,98.30
2018-12-03T17:07:01.558Z,98.30
2018-12-03T17:09:59.338Z,97.80
2018-12-03T17:12:57.073Z,97.80
2018-12-03T17:15:54.617Z,97.90
2018-12-03T17:18:52.591Z,97.60
2018-12-03T17:21:50.464Z,97.70
2018-12-03T17:24:48.289Z,97.50
2018-12-03T17:27:46.356Z,97.60
2018-12-03T17:30:45.359Z,97.90
2018-12-03T17:33:43.221Z,98.50
2018-12-03T17:36:40.962Z,99.00
2018-12-03T17:39:39.591Z,99.10
2018-12-03T17:42:37.578Z,99.60
2018-12-03T17:45:36.264Z,99.80
2018-12-03T17:48:34.830Z,99.90
2018-12-03T17:51:32.739Z,99.90
2018-12-03T17:54:30.837Z,99.90
2018-12-03T17:57:28.578Z,99.90
2018-12-03T18:00:26.321Z,99.90
2018-12-03T18:03:24.051Z,99.90
2018-12-03T18:06:22.083Z,99.90
2018-12-03T18:09:19.914Z,99.90
2018-12-03T18:12:17.773Z,99.90
2018-12-03T18:15:16.633Z,99.90
2018-12-03T18:18:14.597Z,99.80
2018-12-03T18:21:12.501Z,99.50
2018-12-03T18:24:10.465Z,97.30
2018-12-03T18:27:08.294Z,97.70
2018-12-03T18:30:07.185Z,96.60
2018-12-03T18:33:05.791Z,95.80
2018-12-03T18:36:03.690Z,95.80
2018-12-03T18:39:01.635Z,95.00
2018-12-03T18:41:59.504Z,94.60
2018-12-03T18:44:57.361Z,94.20
2018-12-03T18:47:55.055Z,93.90
2018-12-03T18:50:52.942Z,94.80
2018-12-03T18:53:50.924Z,95.20
2018-12-03T18:56:49.571Z,95.60
2018-12-03T18:59:47.698Z,94.80
2018-12-03T19:02:46.384Z,92.70
2018-12-03T19:05:44.107Z,93.30
2018-12-03T19:08:42.657Z,93.80
2018-12-03T19:11:40.766Z,93.30
2018-12-03T19:14:40.411Z,93.00
2018-12-03T19:17:39.299Z,92.40
2018-12-03T19:20:37.260Z,91.60
2018-12-03T19:23:35.114Z,91.00
2018-12-03T19:26:33.171Z,90.80
2018-12-03T19:29:32.023Z,90.60
2018-12-03T19:32:30.886Z,90.30
2018-12-03T19:35:29.714Z,90.00
2018-12-03T19:38:27.486Z,89.00
2018-12-03T19:41:25.196Z,89.30
2018-12-03T19:44:23.883Z,88.20
2018-12-03T19:47:21.682Z,87.80
2018-12-03T19:50:20.596Z,87.00
2018-12-03T19:53:18.473Z,86.80
2018-12-03T19:56:16.442Z,86.40
2018-12-03T19:59:14.307Z,87.10
2018-12-03T20:02:12.104Z,87.50
2018-12-03T20:05:12.846Z,86.70
2018-12-03T20:08:10.829Z,86.70
2018-12-03T20:11:08.789Z,86.60
2018-12-03T20:14:06.566Z,87.30
2018-12-03T20:17:05.204Z,86.20
2018-12-03T20:20:02.865Z,86.50
2018-12-03T20:23:00.732Z,86.30
2018-12-03T20:25:58.566Z,87.40
2018-12-03T20:28:56.664Z,86.10
2018-12-03T20:31:55.629Z,89.00
2018-12-03T20:34:53.469Z,89.40
2018-12-03T20:37:51.300Z,89.70
2018-12-03T20:40:50.544Z,89.00
2018-12-03T20:43:48.981Z,90.00
2018-12-03T20:46:47.597Z,90.40
2018-12-03T20:49:46.445Z,90.60
2018-12-03T20:52:47.385Z,91.50
2018-12-03T20:55:44.492Z,91.80
2018-12-03T20:58:43.498Z,92.20
2018-12-03T21:01:41.192Z,92.60
2018-12-03T21:04:38.982Z,92.20
2018-12-03T21:07:36.732Z,92.50
2018-12-03T21:10:34.522Z,92.20
2018-12-03T21:13:32.342Z,92.40
2018-12-03T21:16:30.003Z,92.40
2018-12-03T21:19:27.906Z,92.80
2018-12-03T21:22:25.711Z,92.90
2018-12-03T21:25:23.586Z,92.90
2018-12-03T21:28:22.395Z,93.10
2018-12-03T21:31:20.298Z,93.30
2018-12-03T21:34:18.058Z,93.40
2018-12-03T21:37:16.047Z,93.50
2018-12-03T21:40:13.943Z,93.60
2018-12-03T21:43:11.934Z,93.40
2018-12-03T21:46:10.701Z,93.40
2018-12-03T21:49:08.672Z,92.50
2018-12-03T21:52:07.755Z,93.50
2018-12-03T21:55:06.443Z,93.50
2018-12-03T21:58:05.291Z,94.30
2018-12-03T22:01:03.987Z,94.90
2018-12-03T22:04:01.840Z,95.30
2018-12-03T22:07:00.569Z,95.90
2018-12-03T22:09:59.174Z,96.10
2018-12-03T22:12:58.028Z,96.60
2018-12-03T22:15:56.014Z,96.40
2018-12-03T22:18:53.863Z,96.40
2018-12-03T22:21:51.573Z,96.80
2018-12-03T22:24:49.460Z,97.30
2018-12-03T22:27:47.318Z,97.40
2018-12-03T22:30:46.110Z,97.40
2018-12-03T22:33:43.944Z,97.80
2018-12-03T22:36:42.034Z,97.90
2018-12-03T22:39:46.216Z,98.00
2018-12-03T22:42:40.603Z,98.30
2018-12-03T22:45:38.368Z,98.50
2018-12-03T22:48:36.156Z,98.60
2018-12-03T22:51:34.070Z,98.60
2018-12-03T22:54:32.847Z,98.50
2018-12-03T22:57:30.691Z,98.50
2018-12-03T23:00:45.949Z,98.60
2018-12-03T23:03:44.570Z,98.80
2018-12-03T23:06:42.457Z,98.90
2018-12-03T23:09:40.230Z,99.10
2018-12-03T23:12:38.028Z,99.10
2018-12-03T23:15:35.835Z,99.20
2018-12-03T23:18:33.782Z,99.30
2018-12-03T23:21:31.699Z,99.50
2018-12-03T23:24:29.596Z,99.10
2018-12-03T23:27:27.670Z,99.50
2018-12-03T23:30:25.207Z,99.40
2018-12-03T23:33:23.876Z,99.60
2018-12-03T23:36:21.610Z,99.50
2018-12-03T23:39:20.525Z,99.40
2018-12-03T23:42:18.283Z,99.50
2018-12-03T23:45:16.223Z,99.40
2018-12-03T23:48:15.109Z,99.50
2018-12-03T23:51:13.073Z,99.50
2018-12-03T23:54:10.821Z,99.60
2018-12-03T23:57:08.634Z,99.30
